Etusivu
METAR-TAF:

METAR-TAF

Lentoasemat :

Gafsa, Tunisia

Leveyspiiri: 34-25N, Pituuspiiri: 008-49E, korkeus merenpinnasta: 313 m

Tämänhetkinen sää

Tämä raportti tehtiin 11 minuuttia sitten, kello 03.00 UTC
Tuuli 7 kn pohjoisesta
Lämpötila 15°C
Kosteus 67%
Ilmanpaine 1016 hPa
Näkyvyys: 8000 m

METAR: DTTF 210300Z 36007KT 8000 NSC 15/09 Q1016 NOSIG

Aika: 04:11 (03:11 UTC)

Sääennuste

Tämä raportti tehtiin 6 tuntia ja 11 minuuttia sitten, kello 21.00 UTC
Ennuste voimassa 20. päivästä klo 22 UTC - 21. päivään klo 07 UTC
Tuuli 9 kn etelästä
Näkyvyys 10 km tai enemmän
Muutamia pilviä 3300 ft:n korkeudessa
Tulossa
20. päivästä klo 21 UTC - 20. päivään klo 23 UTC
Tuuli 5 kn pohjoisesta/koillisesta

TAF: DTTF 202100Z 2022/2107 17009KT 9999 FEW033 BECMG 2021/2023 03005KT

Säähavainnot ja -ennusteet yli 4000 lentoasemalta (METAR- ja TAF-raportit).

Käytössä olevat sääasemat on merkitty karttaan keltaisilla ja punaisilla pisteillä.

Aseta hiiri pisteen päälle nähdäksesi sääaseman nimen.

Klikkaa sitten nähdäksesi säähavainnot ja -ennusteet.

Kartan vaihtaminen: klikkaa mustalla rastilla varustettuja vihreitä pisteitä, niin voit zoomata sisään; viivalla varustettua vihreää pistettä, niin voit zoomata ulos tai vihreitä nuolia, niin pääset viereisille kartoille.


METAR-TAF: